createdAt,value
2018-10-16T00:00:42.875Z,14.18
2018-10-16T00:01:42.888Z,14.12
2018-10-16T00:02:42.852Z,14.17
2018-10-16T00:03:42.843Z,14.14
2018-10-16T00:04:42.831Z,14.17
2018-10-16T00:05:42.821Z,14.06
2018-10-16T00:06:42.823Z,14.07
2018-10-16T00:07:42.813Z,14.03
2018-10-16T00:08:42.787Z,14.06
2018-10-16T00:09:42.782Z,14.03
2018-10-16T00:10:42.767Z,13.97
2018-10-16T00:11:42.756Z,13.97
2018-10-16T00:12:42.772Z,13.95
2018-10-16T00:13:42.736Z,13.92
2018-10-16T00:14:42.728Z,14.02
2018-10-16T00:15:42.712Z,14.02
2018-10-16T00:16:42.704Z,13.97
2018-10-16T00:17:42.692Z,14.00
2018-10-16T00:18:42.692Z,14.00
2018-10-16T00:19:42.669Z,14.02
2018-10-16T00:20:42.659Z,14.07
2018-10-16T00:21:42.648Z,14.09
2018-10-16T00:22:42.641Z,14.02
2018-10-16T00:23:42.653Z,14.03
2018-10-16T00:24:42.617Z,14.06
2018-10-16T00:25:42.652Z,13.97
2018-10-16T00:26:42.595Z,13.95
2018-10-16T00:27:42.583Z,13.99
2018-10-16T00:28:42.572Z,13.96
2018-10-16T00:29:42.590Z,13.97
2018-10-16T00:30:42.556Z,13.95
2018-10-16T00:31:42.541Z,14.02
2018-10-16T00:32:42.575Z,14.00
2018-10-16T00:33:42.519Z,13.96
2018-10-16T00:34:42.508Z,13.96
2018-10-16T00:35:42.534Z,13.89
2018-10-16T00:36:42.486Z,13.95
2018-10-16T00:37:42.475Z,13.99
2018-10-16T00:38:42.465Z,13.96
2018-10-16T00:39:42.453Z,14.00
2018-10-16T00:40:42.443Z,13.92
2018-10-16T00:41:42.446Z,14.07
2018-10-16T00:42:42.423Z,13.99
2018-10-16T00:43:42.411Z,14.00
2018-10-16T00:44:42.400Z,13.92
2018-10-16T00:45:42.419Z,13.95
2018-10-16T00:46:42.378Z,13.97
2018-10-16T00:47:42.367Z,14.06
2018-10-16T00:48:42.357Z,14.02
2018-10-16T00:49:42.346Z,13.95
2018-10-16T00:50:42.337Z,14.03
2018-10-16T00:51:42.352Z,14.06
2018-10-16T00:52:42.313Z,14.04
2018-10-16T00:53:42.309Z,14.04
2018-10-16T00:54:42.301Z,14.07
2018-10-16T00:55:42.282Z,14.04
2018-10-16T00:56:42.270Z,14.03
2018-10-16T00:57:42.269Z,14.03
2018-10-16T00:58:42.248Z,14.10
2018-10-16T00:59:42.237Z,14.07
2018-10-16T01:00:42.228Z,14.06
2018-10-16T01:01:42.218Z,14.17
2018-10-16T01:02:42.221Z,14.14
2018-10-16T01:03:42.193Z,14.22
2018-10-16T01:04:42.183Z,14.10
2018-10-16T01:05:42.172Z,14.24
2018-10-16T01:06:42.162Z,14.15
2018-10-16T01:07:42.163Z,14.10
2018-10-16T01:08:42.139Z,14.14
2018-10-16T01:09:42.143Z,14.12
2018-10-16T01:10:42.118Z,14.17
2018-10-16T01:11:42.109Z,14.17
2018-10-16T01:12:42.110Z,14.07
2018-10-16T01:13:42.085Z,14.09
2018-10-16T01:14:42.074Z,14.00
2018-10-16T01:15:42.064Z,13.95
2018-10-16T01:16:42.053Z,14.02
2018-10-16T01:17:42.057Z,13.91
2018-10-16T01:18:42.031Z,14.00
2018-10-16T01:19:42.020Z,14.00
2018-10-16T01:20:42.024Z,13.96
2018-10-16T01:21:41.998Z,13.89
2018-10-16T01:22:42.006Z,13.97
2018-10-16T01:23:41.976Z,13.97
2018-10-16T01:24:42.016Z,13.99
2018-10-16T01:25:41.956Z,13.92
2018-10-16T01:26:41.971Z,13.97
2018-10-16T01:27:41.933Z,13.97
2018-10-16T01:28:41.940Z,13.96
2018-10-16T01:29:41.920Z,13.95
2018-10-16T01:30:41.913Z,13.96
2018-10-16T01:31:41.889Z,13.95
2018-10-16T01:32:41.880Z,13.97
2018-10-16T01:33:41.867Z,13.89
2018-10-16T01:34:41.858Z,14.00
2018-10-16T01:35:41.863Z,14.00
2018-10-16T01:36:41.836Z,13.89
2018-10-16T01:37:41.824Z,13.95
2018-10-16T01:38:41.813Z,13.95
2018-10-16T01:39:41.803Z,13.95
2018-10-16T01:40:41.807Z,13.97
2018-10-16T01:41:41.794Z,13.91
2018-10-16T01:42:41.773Z,13.91
2018-10-16T01:43:41.763Z,13.91
2018-10-16T01:44:41.748Z,13.84
2018-10-16T01:45:41.737Z,13.95
2018-10-16T01:46:41.757Z,13.95
2018-10-16T01:47:41.716Z,13.95
2018-10-16T01:48:41.704Z,13.97
2018-10-16T01:49:41.693Z,14.03
2018-10-16T01:50:41.683Z,13.95
2018-10-16T01:51:41.672Z,13.97
2018-10-16T01:52:41.699Z,13.95
2018-10-16T01:53:41.650Z,13.96
2018-10-16T01:54:41.639Z,13.99
2018-10-16T01:55:41.629Z,14.03
2018-10-16T01:56:41.621Z,13.97
2018-10-16T01:57:41.607Z,13.97
2018-10-16T01:58:41.636Z,14.03
2018-10-16T01:59:41.584Z,14.00
2018-10-16T02:00:41.575Z,13.97
2018-10-16T02:01:41.564Z,14.02
2018-10-16T02:02:41.558Z,14.03
2018-10-16T02:03:41.586Z,13.99
2018-10-16T02:04:41.544Z,14.03
2018-10-16T02:05:41.519Z,14.03
2018-10-16T02:06:41.509Z,14.06
2018-10-16T02:07:41.500Z,14.09
2018-10-16T02:08:41.518Z,14.02
2018-10-16T02:09:41.482Z,14.06
2018-10-16T02:10:41.465Z,14.10
2018-10-16T02:11:41.453Z,14.18
2018-10-16T02:12:41.444Z,14.20
2018-10-16T02:13:41.433Z,14.12
2018-10-16T02:14:41.518Z,14.25
2018-10-16T02:15:41.411Z,14.17
2018-10-16T02:16:41.399Z,14.18
2018-10-16T02:17:41.390Z,14.24
2018-10-16T02:18:41.379Z,14.20
2018-10-16T02:19:41.382Z,14.28
2018-10-16T02:20:41.357Z,14.28
2018-10-16T02:21:41.346Z,14.28
2018-10-16T02:22:41.334Z,14.27
2018-10-16T02:23:41.328Z,14.32
2018-10-16T02:24:41.343Z,14.29
2018-10-16T02:25:41.303Z,14.33
2018-10-16T02:26:41.296Z,14.36
2018-10-16T02:27:41.280Z,14.29
2018-10-16T02:28:41.270Z,14.32
2018-10-16T02:29:41.257Z,14.32
2018-10-16T02:30:41.264Z,14.37
2018-10-16T02:31:41.234Z,14.32
2018-10-16T02:32:41.239Z,14.33
2018-10-16T02:33:41.215Z,14.37
2018-10-16T02:34:41.209Z,14.33
2018-10-16T02:35:41.208Z,14.32
2018-10-16T02:36:41.200Z,14.45
2018-10-16T02:37:41.175Z,14.32
2018-10-16T02:38:41.164Z,14.33
2018-10-16T02:39:41.149Z,14.35
2018-10-16T02:40:41.180Z,14.28
2018-10-16T02:41:41.135Z,14.39
2018-10-16T02:42:41.120Z,14.35
2018-10-16T02:43:41.105Z,14.50
2018-10-16T02:44:41.094Z,14.50
2018-10-16T02:45:41.084Z,14.43
2018-10-16T02:46:41.103Z,14.45
2018-10-16T02:47:41.063Z,14.45
2018-10-16T02:48:41.055Z,14.50
2018-10-16T02:49:41.046Z,14.47
2018-10-16T02:50:41.033Z,14.43
2018-10-16T02:51:41.018Z,14.47
2018-10-16T02:52:41.039Z,14.50
2018-10-16T02:53:40.995Z,14.42
2018-10-16T02:54:40.985Z,14.45
2018-10-16T02:55:40.975Z,14.39
2018-10-16T02:56:40.962Z,14.47
2018-10-16T02:57:40.956Z,14.43
2018-10-16T02:58:40.977Z,14.46
2018-10-16T02:59:40.930Z,14.42
2018-10-16T03:00:40.924Z,14.42
2018-10-16T03:01:40.910Z,14.51
2018-10-16T03:02:40.897Z,14.51
2018-10-16T03:03:40.887Z,14.54
2018-10-16T03:04:40.900Z,14.52
2018-10-16T03:05:40.864Z,14.60
2018-10-16T03:06:40.852Z,14.55
2018-10-16T03:07:40.851Z,14.58
2018-10-16T03:08:40.830Z,14.58
2018-10-16T03:09:40.821Z,14.54
2018-10-16T03:10:40.808Z,14.57
2018-10-16T03:11:40.799Z,14.54
2018-10-16T03:12:40.797Z,14.62
2018-10-16T03:13:40.775Z,14.54
2018-10-16T03:14:40.776Z,14.58
2018-10-16T03:15:40.754Z,14.57
2018-10-16T03:16:40.744Z,14.55
2018-10-16T03:17:40.733Z,14.52
2018-10-16T03:18:40.749Z,14.60
2018-10-16T03:19:40.709Z,14.58
2018-10-16T03:20:40.763Z,14.57
2018-10-16T03:21:40.693Z,14.57
2018-10-16T03:22:40.676Z,14.57
2018-10-16T03:23:40.665Z,14.58
2018-10-16T03:24:40.667Z,14.55
2018-10-16T03:25:40.689Z,14.52
2018-10-16T03:26:40.634Z,14.64
2018-10-16T03:27:40.622Z,14.52
2018-10-16T03:28:40.612Z,14.57
2018-10-16T03:29:40.600Z,14.55
2018-10-16T03:30:40.600Z,14.54
2018-10-16T03:31:40.593Z,14.55
2018-10-16T03:32:40.582Z,14.55
2018-10-16T03:33:40.557Z,14.45
2018-10-16T03:34:40.545Z,14.54
2018-10-16T03:35:40.534Z,14.46
2018-10-16T03:36:40.555Z,14.43
2018-10-16T03:37:40.513Z,14.52
2018-10-16T03:38:40.501Z,14.45
2018-10-16T03:39:40.491Z,14.50
2018-10-16T03:40:40.478Z,14.50
2018-10-16T03:41:40.467Z,14.47
2018-10-16T03:42:40.467Z,14.55
2018-10-16T03:43:40.447Z,14.58
2018-10-16T03:44:40.445Z,14.60
2018-10-16T03:45:40.424Z,14.52
2018-10-16T03:46:40.414Z,14.60
2018-10-16T03:47:40.464Z,14.68
2018-10-16T03:48:40.401Z,14.64
2018-10-16T03:49:40.381Z,14.62
2018-10-16T03:50:40.369Z,14.72
2018-10-16T03:51:40.359Z,14.60
2018-10-16T03:52:40.362Z,14.61
2018-10-16T03:53:40.336Z,14.68
2018-10-16T03:54:40.339Z,14.55
2018-10-16T03:55:40.315Z,14.52
2018-10-16T03:56:40.303Z,14.58
2018-10-16T03:57:40.294Z,14.57
2018-10-16T03:58:40.309Z,14.55
2018-10-16T03:59:40.270Z,14.58
2018-10-16T04:00:40.261Z,14.65
2018-10-16T04:01:40.248Z,14.58
2018-10-16T04:02:40.237Z,14.50
2018-10-16T04:03:40.229Z,14.55
2018-10-16T04:04:40.229Z,14.58
2018-10-16T04:05:40.207Z,14.58
2018-10-16T04:06:40.252Z,14.51
2018-10-16T04:07:40.184Z,14.54
2018-10-16T04:08:40.172Z,14.54
2018-10-16T04:09:40.172Z,14.54
2018-10-16T04:10:40.154Z,14.55
2018-10-16T04:11:40.139Z,14.55
2018-10-16T04:12:40.130Z,14.52
2018-10-16T04:13:40.128Z,14.52
2018-10-16T04:14:40.107Z,14.52
2018-10-16T04:15:40.096Z,14.54
2018-10-16T04:16:40.085Z,14.51
2018-10-16T04:17:40.075Z,14.47
2018-10-16T04:18:40.078Z,14.47
2018-10-16T04:19:40.055Z,14.50
2018-10-16T04:20:40.041Z,14.42
2018-10-16T04:21:40.031Z,14.51
2018-10-16T04:22:40.042Z,14.51
2018-10-16T04:23:40.009Z,14.46
2018-10-16T04:24:40.006Z,14.39
2018-10-16T04:25:39.986Z,14.39
2018-10-16T04:26:39.974Z,14.42
2018-10-16T04:27:39.966Z,14.43
2018-10-16T04:28:39.964Z,14.42
2018-10-16T04:29:39.941Z,14.39
2018-10-16T04:30:39.957Z,14.45
2018-10-16T04:31:39.921Z,14.45
2018-10-16T04:32:39.911Z,14.43
2018-10-16T04:33:39.899Z,14.42
2018-10-16T04:34:39.892Z,14.46
2018-10-16T04:35:39.876Z,14.40
2018-10-16T04:36:39.905Z,14.47
2018-10-16T04:37:39.854Z,14.42
2018-10-16T04:38:39.844Z,14.40
2018-10-16T04:39:39.833Z,14.42
2018-10-16T04:40:39.823Z,14.43
2018-10-16T04:41:39.936Z,14.33
2018-10-16T04:42:39.813Z,14.32
2018-10-16T04:43:39.796Z,14.35
2018-10-16T04:44:39.780Z,14.36
2018-10-16T04:45:39.768Z,14.32
2018-10-16T04:46:39.771Z,14.33
2018-10-16T04:47:39.770Z,14.29
2018-10-16T04:48:39.736Z,14.29
2018-10-16T04:49:39.725Z,14.28
2018-10-16T04:50:39.713Z,14.21
2018-10-16T04:51:39.717Z,14.27
2018-10-16T04:52:39.854Z,14.21
2018-10-16T04:53:39.680Z,14.24
2018-10-16T04:54:39.670Z,14.17
2018-10-16T04:55:39.657Z,14.20
2018-10-16T04:56:39.646Z,14.17
2018-10-16T04:57:39.635Z,14.24
2018-10-16T04:58:39.659Z,14.20
2018-10-16T04:59:39.613Z,14.17
2018-10-16T05:00:39.603Z,14.29
2018-10-16T05:01:39.592Z,14.20
2018-10-16T05:02:39.581Z,14.22
2018-10-16T05:03:39.570Z,14.21
2018-10-16T05:04:39.578Z,14.18
2018-10-16T05:05:39.551Z,14.15
2018-10-16T05:06:39.540Z,14.24
2018-10-16T05:07:39.530Z,14.20
2018-10-16T05:08:39.518Z,14.20
2018-10-16T05:09:39.520Z,14.18
2018-10-16T05:10:39.493Z,14.20
2018-10-16T05:11:39.482Z,14.27
2018-10-16T05:12:39.498Z,14.24
2018-10-16T05:13:39.461Z,14.18
2018-10-16T05:14:39.450Z,14.20
2018-10-16T05:15:39.452Z,14.18
2018-10-16T05:16:39.428Z,14.12
2018-10-16T05:17:39.415Z,14.12
2018-10-16T05:18:39.405Z,14.09
2018-10-16T05:19:39.398Z,14.14
2018-10-16T05:20:39.411Z,14.15
2018-10-16T05:21:39.372Z,14.12
2018-10-16T05:22:39.361Z,14.14
2018-10-16T05:23:39.350Z,14.04
2018-10-16T05:24:39.340Z,14.10
2018-10-16T05:25:39.328Z,14.10
2018-10-16T05:26:39.353Z,14.15
2018-10-16T05:27:39.338Z,14.17
2018-10-16T05:28:39.295Z,14.17
2018-10-16T05:29:39.285Z,14.07
2018-10-16T05:30:39.274Z,14.06
2018-10-16T05:31:39.372Z,13.99
2018-10-16T05:32:39.252Z,14.07
2018-10-16T05:33:39.252Z,14.18
2018-10-16T05:34:39.229Z,14.14
2018-10-16T05:35:39.219Z,14.12
2018-10-16T05:36:39.207Z,14.17
2018-10-16T05:37:39.210Z,14.10
2018-10-16T05:38:39.186Z,14.17
2018-10-16T05:39:39.184Z,14.18
2018-10-16T05:40:39.164Z,14.07
2018-10-16T05:41:39.153Z,14.10
2018-10-16T05:42:39.153Z,14.14
2018-10-16T05:43:39.132Z,14.12
2018-10-16T05:44:39.125Z,14.14
2018-10-16T05:45:39.109Z,14.17
2018-10-16T05:46:39.136Z,14.04
2018-10-16T05:47:39.089Z,14.18
2018-10-16T05:48:39.077Z,14.15
2018-10-16T05:49:39.067Z,14.18
2018-10-16T05:50:39.056Z,14.14
2018-10-16T05:51:39.046Z,14.09
2018-10-16T05:52:39.043Z,14.17
2018-10-16T05:53:39.025Z,14.10
2018-10-16T05:54:39.011Z,14.02
2018-10-16T05:55:39.004Z,14.03
2018-10-16T05:56:38.996Z,14.04
2018-10-16T05:57:38.991Z,14.06
2018-10-16T05:58:38.971Z,14.02
2018-10-16T05:59:38.968Z,13.97
2018-10-16T06:00:38.948Z,13.97
2018-10-16T06:01:38.934Z,14.15
2018-10-16T06:02:38.923Z,14.02
2018-10-16T06:03:38.912Z,14.06
2018-10-16T06:04:38.913Z,14.02
2018-10-16T06:05:38.959Z,14.03
2018-10-16T06:06:38.881Z,13.99
2018-10-16T06:07:38.875Z,14.02
2018-10-16T06:08:38.869Z,14.03
2018-10-16T06:09:38.850Z,14.02
2018-10-16T06:10:38.875Z,14.12
2018-10-16T06:11:38.827Z,14.04
2018-10-16T06:12:38.818Z,14.06
2018-10-16T06:13:38.819Z,14.03
2018-10-16T06:14:38.796Z,14.07
2018-10-16T06:15:38.811Z,13.99
2018-10-16T06:16:38.773Z,14.03
2018-10-16T06:17:38.761Z,14.03
2018-10-16T06:18:38.748Z,14.04
2018-10-16T06:19:38.739Z,14.03
2018-10-16T06:20:38.729Z,14.10
2018-10-16T06:21:38.731Z,14.07
2018-10-16T06:22:38.706Z,14.07
2018-10-16T06:23:38.695Z,14.14
2018-10-16T06:24:38.700Z,14.12
2018-10-16T06:25:38.688Z,14.14
2018-10-16T06:26:38.663Z,14.18
2018-10-16T06:27:38.656Z,14.18
2018-10-16T06:28:38.648Z,14.20
2018-10-16T06:29:38.674Z,14.18
2018-10-16T06:30:38.619Z,14.20
2018-10-16T06:31:38.609Z,14.20
2018-10-16T06:32:38.598Z,14.24
2018-10-16T06:33:38.590Z,14.20
2018-10-16T06:34:38.575Z,14.24
2018-10-16T06:35:38.580Z,14.21
2018-10-16T06:36:38.552Z,14.27
2018-10-16T06:37:38.570Z,14.36
2018-10-16T06:38:38.531Z,14.35
2018-10-16T06:39:38.522Z,14.42
2018-10-16T06:40:38.599Z,14.40
2018-10-16T06:41:38.556Z,14.46
2018-10-16T06:42:38.487Z,14.50
2018-10-16T06:43:38.506Z,14.45
2018-10-16T06:44:38.467Z,14.54
2018-10-16T06:45:38.454Z,14.55
2018-10-16T06:46:38.506Z,14.51
2018-10-16T06:47:38.544Z,14.62
2018-10-16T06:48:38.746Z,14.57
2018-10-16T06:49:38.423Z,14.54
2018-10-16T06:50:38.403Z,14.52
2018-10-16T06:51:38.388Z,14.55
2018-10-16T06:52:38.378Z,14.68
2018-10-16T06:53:38.367Z,14.68
2018-10-16T06:54:38.378Z,14.70
2018-10-16T06:55:38.345Z,14.77
2018-10-16T06:56:38.335Z,14.72
2018-10-16T06:57:38.324Z,14.75
2018-10-16T06:58:38.313Z,14.70
2018-10-16T06:59:38.342Z,14.80
2018-10-16T07:00:38.308Z,14.86
2018-10-16T07:01:38.286Z,14.78
2018-10-16T07:02:38.283Z,14.72
2018-10-16T07:03:38.258Z,14.89
2018-10-16T07:04:38.247Z,14.84
2018-10-16T07:05:38.250Z,14.89
2018-10-16T07:06:38.249Z,14.91
2018-10-16T07:07:38.218Z,14.89
2018-10-16T07:08:38.204Z,14.89
2018-10-16T07:09:38.194Z,14.91
2018-10-16T07:10:38.196Z,14.96
2018-10-16T07:11:38.171Z,15.06
2018-10-16T07:12:38.161Z,15.07
2018-10-16T07:13:38.164Z,14.99
2018-10-16T07:14:38.139Z,15.14
2018-10-16T07:15:38.129Z,15.10
2018-10-16T07:16:38.137Z,15.14
2018-10-16T07:17:38.107Z,15.11
2018-10-16T07:18:38.099Z,15.25
2018-10-16T07:19:38.089Z,15.20
2018-10-16T07:20:38.076Z,15.19
2018-10-16T07:21:38.120Z,15.25
2018-10-16T07:22:38.057Z,15.19
2018-10-16T07:23:38.119Z,15.17
2018-10-16T07:24:38.035Z,15.20
2018-10-16T07:25:38.028Z,15.35
2018-10-16T07:26:38.015Z,15.28
2018-10-16T07:27:38.044Z,15.36
2018-10-16T07:28:37.993Z,15.35
2018-10-16T07:29:37.982Z,15.36
2018-10-16T07:30:37.970Z,15.49
2018-10-16T07:31:37.960Z,15.47
2018-10-16T07:32:37.948Z,15.50
2018-10-16T07:33:37.951Z,15.59
2018-10-16T07:34:37.928Z,15.57
2018-10-16T07:35:37.915Z,15.67
2018-10-16T07:36:37.904Z,15.67
2018-10-16T07:37:37.931Z,15.71
2018-10-16T07:38:37.917Z,15.71
2018-10-16T07:39:37.871Z,15.76
2018-10-16T07:40:37.860Z,15.72
2018-10-16T07:41:37.848Z,15.72
2018-10-16T07:42:37.838Z,15.82
2018-10-16T07:43:37.840Z,15.75
2018-10-16T07:44:37.814Z,15.78
2018-10-16T07:45:37.845Z,15.86
2018-10-16T07:46:37.824Z,15.84
2018-10-16T07:47:37.781Z,16.04
2018-10-16T07:48:37.878Z,15.90
2018-10-16T07:49:37.759Z,15.97
2018-10-16T07:50:37.747Z,16.08
2018-10-16T07:51:37.752Z,16.14
2018-10-16T07:52:37.725Z,16.04
2018-10-16T07:53:37.744Z,15.97
2018-10-16T07:54:37.703Z,16.11
2018-10-16T07:55:37.692Z,16.12
2018-10-16T07:56:37.681Z,16.08
2018-10-16T07:57:37.670Z,16.01
2018-10-16T07:58:37.661Z,16.08
2018-10-16T07:59:37.662Z,16.21
2018-10-16T08:00:37.649Z,16.12
2018-10-16T08:01:37.641Z,16.12
2018-10-16T08:02:37.617Z,16.12
2018-10-16T08:03:37.605Z,16.11
2018-10-16T08:04:37.591Z,16.15
2018-10-16T08:05:37.616Z,16.17
2018-10-16T08:06:37.569Z,16.20
2018-10-16T08:07:37.558Z,16.14
2018-10-16T08:08:37.547Z,16.04
2018-10-16T08:09:37.536Z,16.21
2018-10-16T08:10:37.524Z,16.14
2018-10-16T08:11:37.530Z,16.20
2018-10-16T08:12:37.505Z,16.27
2018-10-16T08:13:37.493Z,16.33
2018-10-16T08:14:37.483Z,16.38
2018-10-16T08:15:37.470Z,16.43
2018-10-16T08:16:37.475Z,16.58
2018-10-16T08:17:37.453Z,16.67
2018-10-16T08:18:37.438Z,16.76
2018-10-16T08:19:37.432Z,16.89
2018-10-16T08:20:37.431Z,17.06
2018-10-16T08:21:37.406Z,17.21
2018-10-16T08:22:37.409Z,17.41
2018-10-16T08:23:37.385Z,17.36
2018-10-16T08:24:37.374Z,17.59
2018-10-16T08:25:37.378Z,17.66
2018-10-16T08:26:37.382Z,17.77
2018-10-16T08:27:37.340Z,17.84
2018-10-16T08:28:37.330Z,17.81
2018-10-16T08:29:37.320Z,17.82
2018-10-16T08:30:37.464Z,17.79
2018-10-16T08:31:37.302Z,17.86
2018-10-16T08:32:37.324Z,17.84
2018-10-16T08:33:37.275Z,17.87
2018-10-16T08:34:37.265Z,17.74
2018-10-16T08:35:37.254Z,17.75
2018-10-16T08:36:37.427Z,17.62
2018-10-16T08:37:37.234Z,17.66
2018-10-16T08:38:37.248Z,17.59
2018-10-16T08:39:37.247Z,17.70
2018-10-16T08:40:37.201Z,17.71
2018-10-16T08:41:37.221Z,17.59
2018-10-16T08:42:37.179Z,17.55
2018-10-16T08:43:37.168Z,17.52
2018-10-16T08:44:37.185Z,17.51
2018-10-16T08:45:37.147Z,17.63
2018-10-16T08:46:37.137Z,17.59
2018-10-16T08:47:37.202Z,17.71
2018-10-16T08:48:37.114Z,17.59
2018-10-16T08:49:37.105Z,17.59
2018-10-16T08:50:37.110Z,17.64
2018-10-16T08:51:37.082Z,17.63
2018-10-16T08:52:37.071Z,17.64
2018-10-16T08:53:37.060Z,17.64
2018-10-16T08:54:37.061Z,17.66
2018-10-16T08:55:37.038Z,17.68
2018-10-16T08:56:37.028Z,17.81
2018-10-16T08:57:37.030Z,17.77
2018-10-16T08:58:37.006Z,17.82
2018-10-16T08:59:36.995Z,17.96
2018-10-16T09:00:37.003Z,18.14
2018-10-16T09:01:36.974Z,18.25
2018-10-16T09:02:36.976Z,18.23
2018-10-16T09:03:36.952Z,18.26
2018-10-16T09:04:36.939Z,18.58
2018-10-16T09:05:36.930Z,18.91
2018-10-16T09:06:36.967Z,19.11
2018-10-16T09:07:36.926Z,19.28
2018-10-16T09:08:36.899Z,19.16
2018-10-16T09:09:36.889Z,19.40
2018-10-16T09:10:36.878Z,19.50
2018-10-16T09:11:36.880Z,19.61
2018-10-16T09:12:36.856Z,19.65
2018-10-16T09:13:36.844Z,19.63
2018-10-16T09:14:36.876Z,19.71
2018-10-16T09:15:36.822Z,19.81
2018-10-16T09:16:36.826Z,20.03
2018-10-16T09:17:36.803Z,20.03
2018-10-16T09:18:36.791Z,20.24
2018-10-16T09:19:36.793Z,20.35
2018-10-16T09:20:36.769Z,20.36
2018-10-16T09:21:36.760Z,20.28
2018-10-16T09:22:36.751Z,20.50
2018-10-16T09:23:36.768Z,20.47
2018-10-16T09:24:36.825Z,20.43
2018-10-16T09:25:36.717Z,20.55
2018-10-16T09:26:36.707Z,20.54
2018-10-16T09:27:36.696Z,20.66
2018-10-16T09:28:36.686Z,20.82
2018-10-16T09:29:36.710Z,20.95
2018-10-16T09:30:36.704Z,20.97
2018-10-16T09:31:36.654Z,21.07
2018-10-16T09:32:36.646Z,21.22
2018-10-16T09:33:36.633Z,21.13
2018-10-16T09:34:36.622Z,20.94
2018-10-16T09:35:36.629Z,20.76
2018-10-16T09:36:36.602Z,20.58
2018-10-16T09:37:36.697Z,20.64
2018-10-16T09:38:36.580Z,20.47
2018-10-16T09:39:36.570Z,20.41
2018-10-16T09:40:36.577Z,20.58
2018-10-16T09:41:36.549Z,20.64
2018-10-16T09:42:36.538Z,20.58
2018-10-16T09:43:36.527Z,20.38
2018-10-16T09:44:36.517Z,20.18
2018-10-16T09:45:36.542Z,20.10
2018-10-16T09:46:36.500Z,19.92
2018-10-16T09:47:36.487Z,19.83
2018-10-16T09:48:36.476Z,19.83
2018-10-16T09:49:36.562Z,19.87
2018-10-16T09:50:36.454Z,20.05
2018-10-16T09:51:36.459Z,20.02
2018-10-16T09:52:36.435Z,19.99
2018-10-16T09:53:36.446Z,20.17
2018-10-16T09:54:36.407Z,20.17
2018-10-16T09:55:36.399Z,20.28
2018-10-16T09:56:36.387Z,20.24
2018-10-16T09:57:36.376Z,20.28
2018-10-16T09:58:36.365Z,20.42
2018-10-16T09:59:36.368Z,20.50
2018-10-16T10:00:36.346Z,20.58
2018-10-16T10:01:36.331Z,20.69
2018-10-16T10:02:36.320Z,20.76
2018-10-16T10:03:36.310Z,20.72
2018-10-16T10:04:36.309Z,20.73
2018-10-16T10:05:36.287Z,20.67
2018-10-16T10:06:36.277Z,20.62
2018-10-16T10:07:36.267Z,20.59
2018-10-16T10:08:36.270Z,20.58
2018-10-16T10:09:36.259Z,20.42
2018-10-16T10:10:36.233Z,20.47
2018-10-16T10:11:36.222Z,20.26
2018-10-16T10:12:36.211Z,20.26
2018-10-16T10:13:36.201Z,20.23
2018-10-16T10:14:36.208Z,20.28
2018-10-16T10:15:36.212Z,20.31
2018-10-16T10:16:36.167Z,20.39
2018-10-16T10:17:36.154Z,20.61
2018-10-16T10:18:36.159Z,20.76
2018-10-16T10:19:36.132Z,20.79
2018-10-16T10:20:36.121Z,20.99
2018-10-16T10:21:36.125Z,21.04
2018-10-16T10:22:36.099Z,21.10
2018-10-16T10:23:36.090Z,21.10
2018-10-16T10:24:36.081Z,21.10
2018-10-16T10:25:36.068Z,20.95
2018-10-16T10:26:36.097Z,20.94
2018-10-16T10:27:36.050Z,20.97
2018-10-16T10:28:36.036Z,21.04
2018-10-16T10:29:36.061Z,20.99
2018-10-16T10:30:36.016Z,21.01
2018-10-16T10:31:36.004Z,21.03
2018-10-16T10:32:36.021Z,21.03
2018-10-16T10:33:35.984Z,21.14
2018-10-16T10:34:35.984Z,21.24
2018-10-16T10:35:36.063Z,21.25
2018-10-16T10:36:35.952Z,21.31
2018-10-16T10:37:35.941Z,21.49
2018-10-16T10:38:35.945Z,21.54
2018-10-16T10:39:35.920Z,21.72
2018-10-16T10:40:35.909Z,21.98
2018-10-16T10:41:35.899Z,22.09
2018-10-16T10:42:35.919Z,22.21
2018-10-16T10:43:35.877Z,22.33
2018-10-16T10:44:35.867Z,22.43
2018-10-16T10:45:35.856Z,22.55
2018-10-16T10:46:35.845Z,22.68
2018-10-16T10:47:35.836Z,22.72
2018-10-16T10:48:35.851Z,22.40
2018-10-16T10:49:35.816Z,22.27
2018-10-16T10:50:36.071Z,22.28
2018-10-16T10:51:36.120Z,22.24
2018-10-16T10:52:35.788Z,22.24
2018-10-16T10:53:35.771Z,22.27
2018-10-16T10:54:35.772Z,22.24
2018-10-16T10:55:35.751Z,22.35
2018-10-16T10:56:35.781Z,22.33
2018-10-16T10:57:35.730Z,22.27
2018-10-16T10:58:35.718Z,22.15
2018-10-16T10:59:35.710Z,22.12
2018-10-16T11:00:35.698Z,22.17
2018-10-16T11:01:35.700Z,22.20
2018-10-16T11:02:35.677Z,22.24
2018-10-16T11:03:35.989Z,22.25
2018-10-16T11:04:35.682Z,22.21
2018-10-16T11:05:35.644Z,22.22
2018-10-16T11:06:35.634Z,22.25
2018-10-16T11:07:35.623Z,22.12
2018-10-16T11:08:35.614Z,22.05
2018-10-16T11:09:35.603Z,22.02
2018-10-16T11:10:35.606Z,22.02
2018-10-16T11:11:35.582Z,22.05
2018-10-16T11:12:35.571Z,22.10
2018-10-16T11:13:35.574Z,22.09
2018-10-16T11:14:35.548Z,22.12
2018-10-16T11:15:35.566Z,22.28
2018-10-16T11:16:35.528Z,22.28
2018-10-16T11:17:35.518Z,22.46
2018-10-16T11:18:35.507Z,22.62
2018-10-16T11:19:35.516Z,22.73
2018-10-16T11:20:35.486Z,22.79
2018-10-16T11:21:35.490Z,22.80
2018-10-16T11:22:35.467Z,22.82
2018-10-16T11:23:35.457Z,22.82
2018-10-16T11:24:35.444Z,23.04
2018-10-16T11:25:35.447Z,23.19
2018-10-16T11:26:35.422Z,23.57
2018-10-16T11:27:35.413Z,23.75
2018-10-16T11:28:35.402Z,23.88
2018-10-16T11:29:35.392Z,23.97
2018-10-16T11:30:35.412Z,23.94
2018-10-16T11:31:35.371Z,23.65
2018-10-16T11:32:35.360Z,23.65
2018-10-16T11:33:35.351Z,23.61
2018-10-16T11:34:35.338Z,23.72
2018-10-16T11:35:35.329Z,23.70
2018-10-16T11:36:35.332Z,23.47
2018-10-16T11:37:35.311Z,23.38
2018-10-16T11:38:35.298Z,23.54
2018-10-16T11:39:35.287Z,23.68
2018-10-16T11:40:35.277Z,23.69
2018-10-16T11:41:35.299Z,23.90
2018-10-16T11:42:35.259Z,24.10
2018-10-16T11:43:35.246Z,23.98
2018-10-16T11:44:35.235Z,23.73
2018-10-16T11:45:35.232Z,23.69
2018-10-16T11:46:35.215Z,23.79
2018-10-16T11:47:35.237Z,23.97
2018-10-16T11:48:35.194Z,24.21
2018-10-16T11:49:35.199Z,24.37
2018-10-16T11:50:35.173Z,24.61
2018-10-16T11:51:35.163Z,24.67
2018-10-16T11:52:35.152Z,24.53
2018-10-16T11:53:35.157Z,24.39
2018-10-16T11:54:35.132Z,24.40
2018-10-16T11:55:35.122Z,24.57
2018-10-16T11:56:35.112Z,24.67
2018-10-16T11:57:35.100Z,24.52
2018-10-16T11:58:35.106Z,24.42
2018-10-16T11:59:35.080Z,24.40
2018-10-16T12:00:35.074Z,24.37
2018-10-16T12:01:35.059Z,24.35
2018-10-16T12:02:35.104Z,24.43
2018-10-16T12:03:35.052Z,24.37
2018-10-16T12:04:35.027Z,24.42
2018-10-16T12:05:35.018Z,24.39
2018-10-16T12:06:35.007Z,24.37
2018-10-16T12:07:34.996Z,24.31
2018-10-16T12:08:35.000Z,24.37
2018-10-16T12:09:34.975Z,24.42
2018-10-16T12:10:34.991Z,24.37
2018-10-16T12:11:34.955Z,24.39
2018-10-16T12:12:34.944Z,24.46
2018-10-16T12:13:34.947Z,24.42
2018-10-16T12:14:34.922Z,24.37
2018-10-16T12:15:34.912Z,24.40
2018-10-16T12:16:34.963Z,24.39
2018-10-16T12:17:34.904Z,24.35
2018-10-16T12:18:34.882Z,24.22
2018-10-16T12:19:34.943Z,24.10
2018-10-16T12:20:34.874Z,24.00
2018-10-16T12:21:34.849Z,23.88
2018-10-16T12:22:34.840Z,23.88
2018-10-16T12:23:34.887Z,23.78
2018-10-16T12:24:34.817Z,23.69
2018-10-16T12:25:34.839Z,23.69
2018-10-16T12:26:34.799Z,23.70
2018-10-16T12:27:34.786Z,23.65
2018-10-16T12:28:34.777Z,23.73
2018-10-16T12:29:34.766Z,23.70
2018-10-16T12:30:34.754Z,23.68
2018-10-16T12:31:34.758Z,23.70
2018-10-16T12:32:34.733Z,23.63
2018-10-16T12:33:34.736Z,23.53
2018-10-16T12:34:34.712Z,23.54
2018-10-16T12:35:34.710Z,23.48
2018-10-16T12:36:34.691Z,23.47
2018-10-16T12:37:34.718Z,23.43
2018-10-16T12:38:34.781Z,23.48
2018-10-16T12:39:34.720Z,23.51
2018-10-16T12:40:34.649Z,23.40
2018-10-16T12:41:34.639Z,23.42
2018-10-16T12:42:34.653Z,23.47
2018-10-16T12:43:34.748Z,23.39
2018-10-16T12:44:34.634Z,23.43
2018-10-16T12:45:34.596Z,23.36
2018-10-16T12:46:34.585Z,23.47
2018-10-16T12:47:34.579Z,23.39
2018-10-16T12:48:34.564Z,23.35
2018-10-16T12:49:34.554Z,23.36
2018-10-16T12:50:34.556Z,23.39
2018-10-16T12:51:34.533Z,23.39
2018-10-16T12:52:34.522Z,23.35